sensor_id;sensor_type;location;lat;lon;timestamp;P1;durP1;ratioP1;P2;durP2;ratioP2
13708;SDS011;54933;51.908;7.730;2022-10-31T00:01:24;1.63;;;1.53;;
13708;SDS011;54933;51.908;7.730;2022-10-31T00:03:51;3.23;;;2.00;;
13708;SDS011;54933;51.908;7.730;2022-10-31T00:06:17;4.07;;;1.87;;
13708;SDS011;54933;51.908;7.730;2022-10-31T00:08:44;2.90;;;2.13;;
13708;SDS011;54933;51.908;7.730;2022-10-31T00:11:16;1.80;;;1.70;;
13708;SDS011;54933;51.908;7.730;2022-10-31T00:13:41;2.20;;;2.00;;
13708;SDS011;54933;51.908;7.730;2022-10-31T00:16:12;2.70;;;1.70;;
13708;SDS011;54933;51.908;7.730;2022-10-31T00:18:39;2.00;;;1.80;;
13708;SDS011;54933;51.908;7.730;2022-10-31T00:21:04;2.30;;;2.10;;
13708;SDS011;54933;51.908;7.730;2022-10-31T00:23:29;2.00;;;1.90;;
13708;SDS011;54933;51.908;7.730;2022-10-31T00:25:59;2.60;;;2.40;;
13708;SDS011;54933;51.908;7.730;2022-10-31T00:28:28;2.53;;;1.90;;
13708;SDS011;54933;51.908;7.730;2022-10-31T00:30:57;3.30;;;2.33;;
13708;SDS011;54933;51.908;7.730;2022-10-31T00:33:23;2.93;;;2.27;;
13708;SDS011;54933;51.908;7.730;2022-10-31T00:35:49;2.07;;;1.97;;
13708;SDS011;54933;51.908;7.730;2022-10-31T00:38:15;2.47;;;2.27;;
13708;SDS011;54933;51.908;7.730;2022-10-31T00:40:40;3.17;;;1.97;;
13708;SDS011;54933;51.908;7.730;2022-10-31T00:43:05;2.77;;;2.07;;
13708;SDS011;54933;51.908;7.730;2022-10-31T00:45:31;2.27;;;2.00;;
13708;SDS011;54933;51.908;7.730;2022-10-31T00:47:56;2.43;;;2.00;;
13708;SDS011;54933;51.908;7.730;2022-10-31T00:50:21;2.30;;;2.00;;
13708;SDS011;54933;51.908;7.730;2022-10-31T00:52:46;2.23;;;2.00;;
13708;SDS011;54933;51.908;7.730;2022-10-31T00:55:12;2.07;;;1.90;;
13708;SDS011;54933;51.908;7.730;2022-10-31T00:57:37;3.47;;;2.10;;
13708;SDS011;54933;51.908;7.730;2022-10-31T01:00:02;2.13;;;1.93;;
13708;SDS011;54933;51.908;7.730;2022-10-31T01:02:28;2.20;;;2.10;;
13708;SDS011;54933;51.908;7.730;2022-10-31T01:04:53;1.70;;;1.60;;
13708;SDS011;54933;51.908;7.730;2022-10-31T01:07:18;2.13;;;1.90;;
13708;SDS011;54933;51.908;7.730;2022-10-31T01:09:44;2.50;;;2.30;;
13708;SDS011;54933;51.908;7.730;2022-10-31T01:12:09;3.23;;;2.33;;
13708;SDS011;54933;51.908;7.730;2022-10-31T01:14:34;3.63;;;2.03;;
13708;SDS011;54933;51.908;7.730;2022-10-31T01:17:00;2.27;;;1.50;;
13708;SDS011;54933;51.908;7.730;2022-10-31T01:19:25;1.80;;;1.70;;
13708;SDS011;54933;51.908;7.730;2022-10-31T01:21:53;2.83;;;1.90;;
13708;SDS011;54933;51.908;7.730;2022-10-31T01:24:19;2.50;;;2.07;;
13708;SDS011;54933;51.908;7.730;2022-10-31T01:26:45;2.10;;;1.90;;
13708;SDS011;54933;51.908;7.730;2022-10-31T01:29:10;3.90;;;2.27;;
13708;SDS011;54933;51.908;7.730;2022-10-31T01:31:37;3.87;;;2.20;;
13708;SDS011;54933;51.908;7.730;2022-10-31T01:34:04;2.00;;;1.80;;
13708;SDS011;54933;51.908;7.730;2022-10-31T01:36:32;2.47;;;1.90;;
13708;SDS011;54933;51.908;7.730;2022-10-31T01:39:01;2.77;;;2.17;;
13708;SDS011;54933;51.908;7.730;2022-10-31T01:41:31;2.47;;;2.27;;
13708;SDS011;54933;51.908;7.730;2022-10-31T01:43:59;2.27;;;2.10;;
13708;SDS011;54933;51.908;7.730;2022-10-31T01:46:31;2.23;;;2.03;;
13708;SDS011;54933;51.908;7.730;2022-10-31T01:49:02;2.50;;;1.90;;
13708;SDS011;54933;51.908;7.730;2022-10-31T01:51:31;2.00;;;1.90;;
13708;SDS011;54933;51.908;7.730;2022-10-31T01:54:01;2.23;;;1.90;;
13708;SDS011;54933;51.908;7.730;2022-10-31T01:56:30;2.50;;;2.27;;
13708;SDS011;54933;51.908;7.730;2022-10-31T01:58:58;2.40;;;2.10;;
13708;SDS011;54933;51.908;7.730;2022-10-31T02:01:26;3.30;;;2.00;;
13708;SDS011;54933;51.908;7.730;2022-10-31T02:03:52;2.00;;;1.80;;
13708;SDS011;54933;51.908;7.730;2022-10-31T02:06:35;2.63;;;2.10;;
13708;SDS011;54933;51.908;7.730;2022-10-31T02:09:05;2.23;;;1.90;;
13708;SDS011;54933;51.908;7.730;2022-10-31T02:11:31;2.17;;;1.97;;
13708;SDS011;54933;51.908;7.730;2022-10-31T02:13:56;2.20;;;2.10;;
13708;SDS011;54933;51.908;7.730;2022-10-31T02:16:25;2.47;;;2.00;;
13708;SDS011;54933;51.908;7.730;2022-10-31T02:18:50;1.93;;;1.83;;
13708;SDS011;54933;51.908;7.730;2022-10-31T02:32:25;2.90;;;2.17;;
13708;SDS011;54933;51.908;7.730;2022-10-31T02:34:59;1.80;;;1.70;;
13708;SDS011;54933;51.908;7.730;2022-10-31T02:40:27;3.33;;;1.90;;
13708;SDS011;54933;51.908;7.730;2022-10-31T02:43:17;2.50;;;1.73;;
13708;SDS011;54933;51.908;7.730;2022-10-31T02:45:56;3.50;;;1.90;;
13708;SDS011;54933;51.908;7.730;2022-10-31T02:48:27;1.90;;;1.80;;
13708;SDS011;54933;51.908;7.730;2022-10-31T02:50:55;1.93;;;1.80;;
13708;SDS011;54933;51.908;7.730;2022-10-31T02:53:24;1.97;;;1.87;;
13708;SDS011;54933;51.908;7.730;2022-10-31T02:55:59;2.00;;;1.70;;
13708;SDS011;54933;51.908;7.730;2022-10-31T02:58:28;2.03;;;1.90;;
13708;SDS011;54933;51.908;7.730;2022-10-31T03:01:05;2.63;;;2.00;;
13708;SDS011;54933;51.908;7.730;2022-10-31T03:03:45;2.50;;;2.10;;
13708;SDS011;54933;51.908;7.730;2022-10-31T03:06:17;1.97;;;1.77;;
13708;SDS011;54933;51.908;7.730;2022-10-31T03:08:54;1.97;;;1.87;;
13708;SDS011;54933;51.908;7.730;2022-10-31T03:11:29;2.10;;;1.93;;
13708;SDS011;54933;51.908;7.730;2022-10-31T03:14:21;2.20;;;2.00;;
13708;SDS011;54933;51.908;7.730;2022-10-31T03:17:05;1.87;;;1.60;;
13708;SDS011;54933;51.908;7.730;2022-10-31T03:19:40;2.00;;;1.90;;
13708;SDS011;54933;51.908;7.730;2022-10-31T03:22:10;3.13;;;1.47;;
13708;SDS011;54933;51.908;7.730;2022-10-31T03:24:41;2.77;;;2.17;;
13708;SDS011;54933;51.908;7.730;2022-10-31T03:27:07;3.60;;;1.77;;
13708;SDS011;54933;51.908;7.730;2022-10-31T03:29:37;2.30;;;2.20;;
13708;SDS011;54933;51.908;7.730;2022-10-31T03:32:06;1.80;;;1.70;;
13708;SDS011;54933;51.908;7.730;2022-10-31T03:34:36;3.50;;;2.00;;
13708;SDS011;54933;51.908;7.730;2022-10-31T03:37:04;2.03;;;1.93;;
13708;SDS011;54933;51.908;7.730;2022-10-31T03:39:34;1.80;;;1.70;;
13708;SDS011;54933;51.908;7.730;2022-10-31T03:42:09;2.17;;;1.73;;
13708;SDS011;54933;51.908;7.730;2022-10-31T03:44:38;2.30;;;2.10;;
13708;SDS011;54933;51.908;7.730;2022-10-31T03:47:07;1.87;;;1.77;;
13708;SDS011;54933;51.908;7.730;2022-10-31T03:49:33;2.20;;;1.90;;
13708;SDS011;54933;51.908;7.730;2022-10-31T03:52:09;1.87;;;1.77;;
13708;SDS011;54933;51.908;7.730;2022-10-31T03:54:45;2.60;;;1.93;;
13708;SDS011;54933;51.908;7.730;2022-10-31T04:00:16;1.83;;;1.73;;
13708;SDS011;54933;51.908;7.730;2022-10-31T04:02:42;2.20;;;1.83;;
13708;SDS011;54933;51.908;7.730;2022-10-31T04:05:17;2.30;;;1.90;;
13708;SDS011;54933;51.908;7.730;2022-10-31T04:07:44;1.87;;;1.77;;
13708;SDS011;54933;51.908;7.730;2022-10-31T04:10:14;1.83;;;1.73;;
13708;SDS011;54933;51.908;7.730;2022-10-31T04:12:42;2.43;;;1.87;;
13708;SDS011;54933;51.908;7.730;2022-10-31T04:15:13;2.03;;;1.77;;
13708;SDS011;54933;51.908;7.730;2022-10-31T04:17:39;1.90;;;1.80;;
13708;SDS011;54933;51.908;7.730;2022-10-31T04:20:07;1.80;;;1.70;;
13708;SDS011;54933;51.908;7.730;2022-10-31T04:22:33;2.10;;;2.00;;
13708;SDS011;54933;51.908;7.730;2022-10-31T04:24:58;2.17;;;2.03;;
13708;SDS011;54933;51.908;7.730;2022-10-31T04:27:23;2.33;;;1.90;;
13708;SDS011;54933;51.908;7.730;2022-10-31T04:29:48;2.20;;;2.00;;
13708;SDS011;54933;51.908;7.730;2022-10-31T04:32:14;2.17;;;1.60;;
13708;SDS011;54933;51.908;7.730;2022-10-31T04:34:39;1.90;;;1.80;;
13708;SDS011;54933;51.908;7.730;2022-10-31T04:37:04;1.77;;;1.67;;
13708;SDS011;54933;51.908;7.730;2022-10-31T04:39:29;1.87;;;1.77;;
13708;SDS011;54933;51.908;7.730;2022-10-31T04:41:55;2.33;;;2.10;;
13708;SDS011;54933;51.908;7.730;2022-10-31T04:44:20;2.10;;;2.00;;
13708;SDS011;54933;51.908;7.730;2022-10-31T04:46:45;1.90;;;1.80;;
13708;SDS011;54933;51.908;7.730;2022-10-31T04:49:11;2.07;;;1.87;;
13708;SDS011;54933;51.908;7.730;2022-10-31T04:51:36;1.83;;;1.73;;
13708;SDS011;54933;51.908;7.730;2022-10-31T04:54:01;2.10;;;1.90;;
13708;SDS011;54933;51.908;7.730;2022-10-31T04:56:26;2.00;;;1.70;;
13708;SDS011;54933;51.908;7.730;2022-10-31T04:58:52;2.67;;;1.73;;
13708;SDS011;54933;51.908;7.730;2022-10-31T05:01:17;2.10;;;1.97;;
13708;SDS011;54933;51.908;7.730;2022-10-31T05:03:42;1.70;;;1.60;;
13708;SDS011;54933;51.908;7.730;2022-10-31T05:06:08;1.93;;;1.80;;
13708;SDS011;54933;51.908;7.730;2022-10-31T05:08:33;2.23;;;2.00;;
13708;SDS011;54933;51.908;7.730;2022-10-31T05:11:02;2.40;;;1.77;;
13708;SDS011;54933;51.908;7.730;2022-10-31T05:13:28;2.40;;;1.97;;
13708;SDS011;54933;51.908;7.730;2022-10-31T05:15:53;1.90;;;1.80;;
13708;SDS011;54933;51.908;7.730;2022-10-31T05:18:19;2.10;;;2.00;;
13708;SDS011;54933;51.908;7.730;2022-10-31T05:20:44;2.10;;;1.90;;
13708;SDS011;54933;51.908;7.730;2022-10-31T05:23:09;2.20;;;2.00;;
13708;SDS011;54933;51.908;7.730;2022-10-31T05:25:34;1.80;;;1.70;;
13708;SDS011;54933;51.908;7.730;2022-10-31T05:28:00;2.40;;;1.90;;
13708;SDS011;54933;51.908;7.730;2022-10-31T05:30:26;2.03;;;1.93;;
13708;SDS011;54933;51.908;7.730;2022-10-31T05:32:54;2.37;;;1.87;;
13708;SDS011;54933;51.908;7.730;2022-10-31T05:35:21;2.10;;;1.90;;
13708;SDS011;54933;51.908;7.730;2022-10-31T05:37:48;2.17;;;2.07;;
13708;SDS011;54933;51.908;7.730;2022-10-31T05:40:14;1.97;;;1.80;;
13708;SDS011;54933;51.908;7.730;2022-10-31T05:42:40;2.30;;;2.10;;
13708;SDS011;54933;51.908;7.730;2022-10-31T05:45:07;3.43;;;2.13;;
13708;SDS011;54933;51.908;7.730;2022-10-31T05:47:34;2.13;;;1.93;;
13708;SDS011;54933;51.908;7.730;2022-10-31T05:49:59;2.20;;;2.07;;
13708;SDS011;54933;51.908;7.730;2022-10-31T05:52:24;2.03;;;1.87;;
13708;SDS011;54933;51.908;7.730;2022-10-31T05:54:50;2.17;;;1.97;;
13708;SDS011;54933;51.908;7.730;2022-10-31T05:57:15;1.90;;;1.70;;
13708;SDS011;54933;51.908;7.730;2022-10-31T05:59:40;2.10;;;1.90;;
13708;SDS011;54933;51.908;7.730;2022-10-31T06:02:05;4.47;;;1.90;;
13708;SDS011;54933;51.908;7.730;2022-10-31T06:04:31;3.80;;;1.83;;
13708;SDS011;54933;51.908;7.730;2022-10-31T06:06:56;1.97;;;1.87;;
13708;SDS011;54933;51.908;7.730;2022-10-31T06:09:22;2.90;;;1.80;;
13708;SDS011;54933;51.908;7.730;2022-10-31T06:11:47;1.80;;;1.70;;
13708;SDS011;54933;51.908;7.730;2022-10-31T06:14:13;2.13;;;1.90;;
13708;SDS011;54933;51.908;7.730;2022-10-31T06:16:38;2.30;;;1.87;;
13708;SDS011;54933;51.908;7.730;2022-10-31T06:19:03;1.80;;;1.70;;
13708;SDS011;54933;51.908;7.730;2022-10-31T06:21:28;1.80;;;1.70;;
13708;SDS011;54933;51.908;7.730;2022-10-31T06:23:54;3.10;;;2.30;;
13708;SDS011;54933;51.908;7.730;2022-10-31T06:26:19;26.57;;;3.27;;
13708;SDS011;54933;51.908;7.730;2022-10-31T06:28:44;8.43;;;2.33;;
13708;SDS011;54933;51.908;7.730;2022-10-31T06:31:09;49.50;;;9.87;;
13708;SDS011;54933;51.908;7.730;2022-10-31T06:33:35;35.33;;;10.80;;
13708;SDS011;54933;51.908;7.730;2022-10-31T06:36:00;15.20;;;5.67;;
13708;SDS011;54933;51.908;7.730;2022-10-31T06:38:26;6.07;;;4.00;;
13708;SDS011;54933;51.908;7.730;2022-10-31T06:40:52;12.60;;;4.03;;
13708;SDS011;54933;51.908;7.730;2022-10-31T06:43:18;8.23;;;3.90;;
13708;SDS011;54933;51.908;7.730;2022-10-31T06:45:43;8.37;;;3.23;;
13708;SDS011;54933;51.908;7.730;2022-10-31T06:48:08;6.83;;;3.50;;
13708;SDS011;54933;51.908;7.730;2022-10-31T06:50:34;5.60;;;3.10;;
13708;SDS011;54933;51.908;7.730;2022-10-31T06:52:59;7.70;;;3.47;;
13708;SDS011;54933;51.908;7.730;2022-10-31T06:55:24;6.10;;;3.60;;
13708;SDS011;54933;51.908;7.730;2022-10-31T06:57:58;4.97;;;3.33;;
13708;SDS011;54933;51.908;7.730;2022-10-31T07:00:25;17.80;;;4.57;;
13708;SDS011;54933;51.908;7.730;2022-10-31T07:02:59;17.50;;;4.00;;
13708;SDS011;54933;51.908;7.730;2022-10-31T07:05:26;14.50;;;3.93;;
13708;SDS011;54933;51.908;7.730;2022-10-31T07:07:59;8.50;;;3.67;;
13708;SDS011;54933;51.908;7.730;2022-10-31T07:10:27;6.40;;;2.90;;
13708;SDS011;54933;51.908;7.730;2022-10-31T07:12:55;15.40;;;3.70;;
13708;SDS011;54933;51.908;7.730;2022-10-31T07:15:22;4.03;;;2.63;;
13708;SDS011;54933;51.908;7.730;2022-10-31T07:17:47;6.37;;;2.80;;
13708;SDS011;54933;51.908;7.730;2022-10-31T07:20:13;23.43;;;4.70;;
13708;SDS011;54933;51.908;7.730;2022-10-31T07:22:38;9.47;;;3.20;;
13708;SDS011;54933;51.908;7.730;2022-10-31T07:25:04;12.87;;;3.47;;
13708;SDS011;54933;51.908;7.730;2022-10-31T07:27:34;10.83;;;3.03;;
13708;SDS011;54933;51.908;7.730;2022-10-31T07:30:03;13.40;;;2.80;;
13708;SDS011;54933;51.908;7.730;2022-10-31T07:35:09;5.50;;;2.40;;
13708;SDS011;54933;51.908;7.730;2022-10-31T07:37:36;7.83;;;2.43;;
13708;SDS011;54933;51.908;7.730;2022-10-31T07:40:02;7.57;;;2.50;;
13708;SDS011;54933;51.908;7.730;2022-10-31T07:42:29;18.00;;;2.30;;
13708;SDS011;54933;51.908;7.730;2022-10-31T07:44:54;8.00;;;2.60;;
13708;SDS011;54933;51.908;7.730;2022-10-31T07:47:19;4.70;;;2.53;;
13708;SDS011;54933;51.908;7.730;2022-10-31T07:49:45;5.57;;;2.33;;
13708;SDS011;54933;51.908;7.730;2022-10-31T07:52:10;18.77;;;4.40;;
13708;SDS011;54933;51.908;7.730;2022-10-31T07:54:35;17.00;;;4.13;;
13708;SDS011;54933;51.908;7.730;2022-10-31T07:57:01;8.27;;;3.83;;
13708;SDS011;54933;51.908;7.730;2022-10-31T07:59:26;14.33;;;3.33;;
13708;SDS011;54933;51.908;7.730;2022-10-31T08:01:52;11.40;;;3.03;;
13708;SDS011;54933;51.908;7.730;2022-10-31T08:04:17;8.50;;;2.83;;
13708;SDS011;54933;51.908;7.730;2022-10-31T08:06:42;9.97;;;2.90;;
13708;SDS011;54933;51.908;7.730;2022-10-31T08:09:08;11.77;;;4.13;;
13708;SDS011;54933;51.908;7.730;2022-10-31T08:11:33;47.13;;;7.57;;
13708;SDS011;54933;51.908;7.730;2022-10-31T08:13:58;46.60;;;7.40;;
13708;SDS011;54933;51.908;7.730;2022-10-31T08:16:23;23.93;;;6.40;;
13708;SDS011;54933;51.908;7.730;2022-10-31T08:18:49;27.10;;;5.60;;
13708;SDS011;54933;51.908;7.730;2022-10-31T08:21:14;26.07;;;5.03;;
13708;SDS011;54933;51.908;7.730;2022-10-31T08:23:39;27.30;;;5.10;;
13708;SDS011;54933;51.908;7.730;2022-10-31T08:26:04;29.03;;;4.73;;
13708;SDS011;54933;51.908;7.730;2022-10-31T08:28:31;38.00;;;6.43;;
13708;SDS011;54933;51.908;7.730;2022-10-31T08:30:57;24.77;;;4.20;;
13708;SDS011;54933;51.908;7.730;2022-10-31T08:33:22;20.00;;;3.70;;
13708;SDS011;54933;51.908;7.730;2022-10-31T08:35:48;17.37;;;3.20;;
13708;SDS011;54933;51.908;7.730;2022-10-31T08:38:13;12.27;;;3.30;;
13708;SDS011;54933;51.908;7.730;2022-10-31T08:40:39;7.50;;;2.70;;
13708;SDS011;54933;51.908;7.730;2022-10-31T08:43:12;7.10;;;2.70;;
13708;SDS011;54933;51.908;7.730;2022-10-31T08:45:39;8.53;;;3.00;;
13708;SDS011;54933;51.908;7.730;2022-10-31T08:48:06;11.10;;;2.70;;
13708;SDS011;54933;51.908;7.730;2022-10-31T08:50:35;6.33;;;2.40;;
13708;SDS011;54933;51.908;7.730;2022-10-31T08:53:01;8.53;;;2.43;;
13708;SDS011;54933;51.908;7.730;2022-10-31T08:55:32;3.47;;;2.40;;
13708;SDS011;54933;51.908;7.730;2022-10-31T08:58:01;5.00;;;2.90;;
13708;SDS011;54933;51.908;7.730;2022-10-31T09:00:27;4.83;;;2.30;;
13708;SDS011;54933;51.908;7.730;2022-10-31T09:02:56;4.50;;;2.03;;
13708;SDS011;54933;51.908;7.730;2022-10-31T09:05:22;5.90;;;2.40;;
13708;SDS011;54933;51.908;7.730;2022-10-31T09:07:47;9.40;;;2.40;;
13708;SDS011;54933;51.908;7.730;2022-10-31T09:10:12;3.27;;;2.33;;
13708;SDS011;54933;51.908;7.730;2022-10-31T09:12:37;8.73;;;2.23;;
13708;SDS011;54933;51.908;7.730;2022-10-31T09:15:03;6.30;;;2.77;;
13708;SDS011;54933;51.908;7.730;2022-10-31T09:17:31;2.23;;;1.83;;
13708;SDS011;54933;51.908;7.730;2022-10-31T09:19:56;3.70;;;2.07;;
13708;SDS011;54933;51.908;7.730;2022-10-31T09:22:21;10.63;;;2.17;;
13708;SDS011;54933;51.908;7.730;2022-10-31T09:24:47;5.07;;;2.37;;
13708;SDS011;54933;51.908;7.730;2022-10-31T09:27:12;6.30;;;2.13;;
13708;SDS011;54933;51.908;7.730;2022-10-31T09:29:37;4.27;;;1.83;;
13708;SDS011;54933;51.908;7.730;2022-10-31T09:32:03;6.50;;;2.17;;
13708;SDS011;54933;51.908;7.730;2022-10-31T09:34:28;4.70;;;1.73;;
13708;SDS011;54933;51.908;7.730;2022-10-31T09:36:53;2.00;;;1.90;;
13708;SDS011;54933;51.908;7.730;2022-10-31T09:39:19;3.67;;;2.00;;
13708;SDS011;54933;51.908;7.730;2022-10-31T09:41:58;3.47;;;2.10;;
13708;SDS011;54933;51.908;7.730;2022-10-31T09:56:00;2.00;;;1.70;;
13708;SDS011;54933;51.908;7.730;2022-10-31T09:58:27;2.87;;;1.83;;
13708;SDS011;54933;51.908;7.730;2022-10-31T10:00:55;2.10;;;1.87;;
13708;SDS011;54933;51.908;7.730;2022-10-31T10:03:42;4.57;;;1.97;;
13708;SDS011;54933;51.908;7.730;2022-10-31T10:06:14;5.70;;;1.93;;
13708;SDS011;54933;51.908;7.730;2022-10-31T10:08:53;4.10;;;1.97;;
13708;SDS011;54933;51.908;7.730;2022-10-31T10:11:26;2.53;;;1.80;;
13708;SDS011;54933;51.908;7.730;2022-10-31T10:27:46;4.00;;;2.13;;
13708;SDS011;54933;51.908;7.730;2022-10-31T10:33:14;6.37;;;2.30;;
13708;SDS011;54933;51.908;7.730;2022-10-31T10:35:48;4.80;;;2.40;;
13708;SDS011;54933;51.908;7.730;2022-10-31T10:38:23;5.63;;;2.60;;
13708;SDS011;54933;51.908;7.730;2022-10-31T10:40:54;3.60;;;2.63;;
13708;SDS011;54933;51.908;7.730;2022-10-31T10:57:46;3.03;;;2.60;;
13708;SDS011;54933;51.908;7.730;2022-10-31T11:00:25;3.00;;;2.73;;
13708;SDS011;54933;51.908;7.730;2022-10-31T11:02:54;3.80;;;3.00;;
13708;SDS011;54933;51.908;7.730;2022-10-31T11:05:23;7.17;;;4.20;;
13708;SDS011;54933;51.908;7.730;2022-10-31T11:08:04;9.60;;;4.93;;
13708;SDS011;54933;51.908;7.730;2022-10-31T11:10:30;9.97;;;5.43;;
13708;SDS011;54933;51.908;7.730;2022-10-31T11:15:32;7.07;;;4.70;;
13708;SDS011;54933;51.908;7.730;2022-10-31T11:18:02;10.53;;;5.57;;
13708;SDS011;54933;51.908;7.730;2022-10-31T11:20:30;9.90;;;5.37;;
13708;SDS011;54933;51.908;7.730;2022-10-31T11:23:15;9.13;;;5.57;;
13708;SDS011;54933;51.908;7.730;2022-10-31T11:25:50;42.10;;;10.63;;
13708;SDS011;54933;51.908;7.730;2022-10-31T11:28:25;55.77;;;11.13;;
13708;SDS011;54933;51.908;7.730;2022-10-31T11:30:55;42.23;;;10.00;;
13708;SDS011;54933;51.908;7.730;2022-10-31T11:33:26;25.00;;;9.33;;
13708;SDS011;54933;51.908;7.730;2022-10-31T11:35:55;31.10;;;9.23;;
13708;SDS011;54933;51.908;7.730;2022-10-31T11:38:23;27.10;;;8.97;;
13708;SDS011;54933;51.908;7.730;2022-10-31T11:40:51;23.93;;;7.83;;
13708;SDS011;54933;51.908;7.730;2022-10-31T11:43:19;20.93;;;5.90;;
13708;SDS011;54933;51.908;7.730;2022-10-31T11:45:44;21.37;;;5.97;;
13708;SDS011;54933;51.908;7.730;2022-10-31T11:48:17;14.20;;;4.57;;
13708;SDS011;54933;51.908;7.730;2022-10-31T11:50:49;18.60;;;4.50;;
13708;SDS011;54933;51.908;7.730;2022-10-31T11:53:22;9.77;;;4.73;;
13708;SDS011;54933;51.908;7.730;2022-10-31T11:58:40;6.33;;;3.23;;
13708;SDS011;54933;51.908;7.730;2022-10-31T12:01:08;15.60;;;8.80;;
13708;SDS011;54933;51.908;7.730;2022-10-31T12:06:37;19.27;;;10.67;;
13708;SDS011;54933;51.908;7.730;2022-10-31T12:09:10;23.53;;;10.93;;
13708;SDS011;54933;51.908;7.730;2022-10-31T12:11:42;17.67;;;9.27;;
13708;SDS011;54933;51.908;7.730;2022-10-31T12:17:03;19.50;;;10.77;;
13708;SDS011;54933;51.908;7.730;2022-10-31T12:19:42;25.67;;;10.83;;
13708;SDS011;54933;51.908;7.730;2022-10-31T12:22:20;73.60;;;14.70;;
13708;SDS011;54933;51.908;7.730;2022-10-31T12:25:03;36.23;;;11.53;;
13708;SDS011;54933;51.908;7.730;2022-10-31T12:33:23;47.30;;;11.47;;
13708;SDS011;54933;51.908;7.730;2022-10-31T12:38:57;35.60;;;10.07;;
13708;SDS011;54933;51.908;7.730;2022-10-31T12:57:52;15.70;;;6.07;;
13708;SDS011;54933;51.908;7.730;2022-10-31T13:00:23;15.73;;;5.50;;
13708;SDS011;54933;51.908;7.730;2022-10-31T13:05:49;16.80;;;5.30;;
13708;SDS011;54933;51.908;7.730;2022-10-31T13:08:20;48.80;;;8.43;;
13708;SDS011;54933;51.908;7.730;2022-10-31T13:11:46;46.73;;;7.77;;
13708;SDS011;54933;51.908;7.730;2022-10-31T13:16:28;26.00;;;5.93;;
13708;SDS011;54933;51.908;7.730;2022-10-31T13:19:15;20.70;;;5.13;;
13708;SDS011;54933;51.908;7.730;2022-10-31T13:24:40;15.57;;;4.90;;
13708;SDS011;54933;51.908;7.730;2022-10-31T13:27:24;10.10;;;4.27;;
13708;SDS011;54933;51.908;7.730;2022-10-31T13:30:33;25.53;;;4.50;;
13708;SDS011;54933;51.908;7.730;2022-10-31T13:32:41;20.27;;;4.50;;
13708;SDS011;54933;51.908;7.730;2022-10-31T13:35:14;18.87;;;4.93;;
13708;SDS011;54933;51.908;7.730;2022-10-31T13:37:46;17.20;;;4.47;;
13708;SDS011;54933;51.908;7.730;2022-10-31T13:43:17;8.47;;;4.83;;
13708;SDS011;54933;51.908;7.730;2022-10-31T13:45:54;12.23;;;5.17;;
13708;SDS011;54933;51.908;7.730;2022-10-31T13:48:32;12.73;;;4.80;;
13708;SDS011;54933;51.908;7.730;2022-10-31T13:51:04;18.20;;;4.87;;
13708;SDS011;54933;51.908;7.730;2022-10-31T13:53:36;13.47;;;4.73;;
13708;SDS011;54933;51.908;7.730;2022-10-31T13:58:56;14.60;;;4.40;;
13708;SDS011;54933;51.908;7.730;2022-10-31T14:01:24;12.47;;;4.17;;
13708;SDS011;54933;51.908;7.730;2022-10-31T14:03:59;9.27;;;4.20;;
13708;SDS011;54933;51.908;7.730;2022-10-31T14:06:38;8.53;;;4.10;;
13708;SDS011;54933;51.908;7.730;2022-10-31T14:09:16;16.07;;;4.83;;
13708;SDS011;54933;51.908;7.730;2022-10-31T14:11:49;10.50;;;3.57;;
13708;SDS011;54933;51.908;7.730;2022-10-31T14:14:15;8.93;;;4.00;;
13708;SDS011;54933;51.908;7.730;2022-10-31T14:16:44;11.63;;;4.03;;
13708;SDS011;54933;51.908;7.730;2022-10-31T14:19:17;6.07;;;4.03;;
13708;SDS011;54933;51.908;7.730;2022-10-31T14:21:45;8.47;;;3.47;;
13708;SDS011;54933;51.908;7.730;2022-10-31T14:26:56;41.20;;;13.10;;
13708;SDS011;54933;51.908;7.730;2022-10-31T14:32:00;53.27;;;16.23;;
13708;SDS011;54933;51.908;7.730;2022-10-31T14:34:33;56.00;;;13.40;;
13708;SDS011;54933;51.908;7.730;2022-10-31T14:40:02;56.50;;;11.80;;
13708;SDS011;54933;51.908;7.730;2022-10-31T14:45:13;36.13;;;11.97;;
13708;SDS011;54933;51.908;7.730;2022-10-31T14:50:40;31.93;;;9.53;;
13708;SDS011;54933;51.908;7.730;2022-10-31T14:53:12;24.27;;;7.90;;
13708;SDS011;54933;51.908;7.730;2022-10-31T14:55:46;74.50;;;15.47;;
13708;SDS011;54933;51.908;7.730;2022-10-31T14:58:19;26.10;;;13.47;;
13708;SDS011;54933;51.908;7.730;2022-10-31T15:00:47;39.80;;;13.73;;
13708;SDS011;54933;51.908;7.730;2022-10-31T15:03:16;26.60;;;11.30;;
13708;SDS011;54933;51.908;7.730;2022-10-31T15:05:51;30.23;;;10.97;;
13708;SDS011;54933;51.908;7.730;2022-10-31T15:08:26;19.20;;;10.07;;
13708;SDS011;54933;51.908;7.730;2022-10-31T15:10:54;20.20;;;8.13;;
13708;SDS011;54933;51.908;7.730;2022-10-31T15:13:20;14.20;;;7.40;;
13708;SDS011;54933;51.908;7.730;2022-10-31T15:15:47;37.57;;;13.73;;
13708;SDS011;54933;51.908;7.730;2022-10-31T15:18:18;31.63;;;12.80;;
13708;SDS011;54933;51.908;7.730;2022-10-31T15:20:46;26.33;;;11.70;;
13708;SDS011;54933;51.908;7.730;2022-10-31T15:23:16;21.47;;;11.17;;
13708;SDS011;54933;51.908;7.730;2022-10-31T15:25:46;25.87;;;11.10;;
13708;SDS011;54933;51.908;7.730;2022-10-31T15:28:13;26.37;;;10.20;;
13708;SDS011;54933;51.908;7.730;2022-10-31T15:30:54;21.43;;;9.40;;
13708;SDS011;54933;51.908;7.730;2022-10-31T15:33:22;21.30;;;7.77;;
13708;SDS011;54933;51.908;7.730;2022-10-31T15:35:56;28.40;;;11.60;;
13708;SDS011;54933;51.908;7.730;2022-10-31T15:38:23;25.73;;;8.53;;
13708;SDS011;54933;51.908;7.730;2022-10-31T15:40:57;13.17;;;7.97;;
13708;SDS011;54933;51.908;7.730;2022-10-31T15:43:27;15.77;;;7.33;;
13708;SDS011;54933;51.908;7.730;2022-10-31T15:45:57;39.63;;;13.33;;
13708;SDS011;54933;51.908;7.730;2022-10-31T15:48:24;35.33;;;13.37;;
13708;SDS011;54933;51.908;7.730;2022-10-31T15:50:51;39.30;;;11.93;;
13708;SDS011;54933;51.908;7.730;2022-10-31T15:53:21;37.77;;;10.17;;
13708;SDS011;54933;51.908;7.730;2022-10-31T15:55:51;26.20;;;9.33;;
13708;SDS011;54933;51.908;7.730;2022-10-31T15:58:19;31.60;;;8.43;;
13708;SDS011;54933;51.908;7.730;2022-10-31T16:00:45;26.30;;;8.63;;
13708;SDS011;54933;51.908;7.730;2022-10-31T16:03:29;18.70;;;7.40;;
13708;SDS011;54933;51.908;7.730;2022-10-31T16:11:01;17.70;;;7.27;;
13708;SDS011;54933;51.908;7.730;2022-10-31T16:13:40;21.57;;;7.43;;
13708;SDS011;54933;51.908;7.730;2022-10-31T16:16:16;18.37;;;6.03;;
13708;SDS011;54933;51.908;7.730;2022-10-31T16:18:45;19.70;;;6.63;;
13708;SDS011;54933;51.908;7.730;2022-10-31T16:21:10;216.60;;;21.47;;
13708;SDS011;54933;51.908;7.730;2022-10-31T16:23:36;53.40;;;9.90;;
13708;SDS011;54933;51.908;7.730;2022-10-31T16:26:08;28.37;;;8.30;;
13708;SDS011;54933;51.908;7.730;2022-10-31T16:28:34;26.73;;;7.20;;
13708;SDS011;54933;51.908;7.730;2022-10-31T16:31:01;17.13;;;6.83;;
13708;SDS011;54933;51.908;7.730;2022-10-31T16:33:30;21.80;;;9.67;;
13708;SDS011;54933;51.908;7.730;2022-10-31T16:36:01;30.43;;;8.33;;
13708;SDS011;54933;51.908;7.730;2022-10-31T16:38:52;25.13;;;7.97;;
13708;SDS011;54933;51.908;7.730;2022-10-31T16:41:17;20.43;;;7.50;;
13708;SDS011;54933;51.908;7.730;2022-10-31T16:43:43;25.17;;;8.27;;
13708;SDS011;54933;51.908;7.730;2022-10-31T16:46:12;32.57;;;8.37;;
13708;SDS011;54933;51.908;7.730;2022-10-31T16:48:39;22.53;;;8.07;;
13708;SDS011;54933;51.908;7.730;2022-10-31T16:51:06;31.93;;;10.03;;
13708;SDS011;54933;51.908;7.730;2022-10-31T16:53:32;25.53;;;8.10;;
13708;SDS011;54933;51.908;7.730;2022-10-31T16:55:58;27.43;;;8.30;;
13708;SDS011;54933;51.908;7.730;2022-10-31T16:58:27;37.43;;;10.43;;
13708;SDS011;54933;51.908;7.730;2022-10-31T17:00:57;22.23;;;7.70;;
13708;SDS011;54933;51.908;7.730;2022-10-31T17:03:24;20.00;;;8.33;;